Time;durP1;ratioP1;P1;durP2;ratioP2;P2;SDS_P1;SDS_P2;PMS_P1;PMS_P2;Temp;Humidity;BMP_temperature;BMP_pressure;BME280_temperature;BME280_humidity;BME280_pressure;Samples;Min_cycle;Max_cycle;Signal;HPM_P1;HPM_P2
2022/11/13 00:00:43;;;;;;;16.20;14.73;;;;;;;29.21;50.93;100871.44;5081701;27;65669;-39
2022/11/13 00:03:32;;;;;;;16.00;14.57;;;;;;;29.25;50.80;100878.06;5085785;27;69498;-38
2022/11/13 00:06:21;;;;;;;15.27;14.05;;;;;;;29.25;51.31;100883.47;5085672;27;66163;-38
2022/11/13 00:09:13;;;;;;;16.13;14.95;;;;;;;29.19;51.39;100873.50;5082789;27;70255;-39
2022/11/13 00:12:02;;;;;;;16.37;14.73;;;;;;;29.29;51.57;100881.22;5078696;27;65462;-40
2022/11/13 00:14:51;;;;;;;15.88;14.43;;;;;;;29.34;51.72;100898.44;5085028;27;70191;-40
2022/11/13 00:17:40;;;;;;;15.88;13.95;;;;;;;29.36;51.36;100901.78;5090841;27;65475;-40
2022/11/13 00:20:29;;;;;;;14.65;13.55;;;;;;;29.38;52.25;100905.09;5078232;27;69923;-39
2022/11/13 00:23:18;;;;;;;15.95;14.60;;;;;;;29.37;52.25;100898.03;5089165;27;65350;-42
2022/11/13 00:26:08;;;;;;;16.92;15.52;;;;;;;29.46;54.05;100911.31;5088214;27;70394;-39
2022/11/13 00:29:00;;;;;;;17.35;15.77;;;;;;;29.48;53.91;100920.06;5093942;27;65595;-40
2022/11/13 00:31:50;;;;;;;17.50;15.75;;;;;;;29.47;54.16;100923.78;5081852;27;69338;-41
2022/11/13 00:34:39;;;;;;;16.02;14.57;;;;;;;29.48;54.70;100914.66;5079080;27;66401;-39
2022/11/13 00:37:34;;;;;;;15.27;13.90;;;;;;;29.43;54.83;100906.34;5079252;27;70609;-40
2022/11/13 00:40:24;;;;;;;19.45;15.98;;;;;;;29.55;57.12;100935.22;5092754;27;66681;-40
2022/11/13 00:43:13;;;;;;;28.00;22.83;;;;;;;29.62;60.28;100921.69;5081540;27;69631;-40
2022/11/13 00:46:02;;;;;;;27.45;24.27;;;;;;;29.54;63.36;100908.41;5092761;27;66115;-41
2022/11/13 00:48:51;;;;;;;29.17;25.10;;;;;;;29.70;64.84;100928.75;5086115;27;69819;-41
2022/11/13 00:51:40;;;;;;;32.33;24.42;;;;;;;29.34;65.46;100871.44;5081192;27;65997;-41
2022/11/13 00:54:30;;;;;;;33.97;25.13;;;;;;;29.78;65.87;100925.84;5084892;27;70486;-41
2022/11/13 00:57:19;;;;;;;31.15;23.85;;;;;;;29.80;66.31;100927.28;5081558;27;65814;-41
2022/11/13 01:00:09;;;;;;;27.92;22.98;;;;;;;29.82;67.10;100922.50;5082277;27;70263;-42
2022/11/13 01:03:00;;;;;;;26.52;23.15;;;;;;;29.88;67.12;100920.00;5078904;27;65453;-42
2022/11/13 01:05:49;;;;;;;27.65;23.08;;;;;;;29.90;67.33;100921.44;5081799;27;70088;-42
2022/11/13 01:08:39;;;;;;;26.25;21.98;;;;;;;29.81;68.20;100911.88;5092862;27;66454;-40
2022/11/13 01:11:30;;;;;;;26.65;21.65;;;;;;;29.84;68.38;100916.91;5087594;27;69720;-42
2022/11/13 01:14:19;;;;;;;29.08;20.67;;;;;;;29.88;68.42;100920.00;5076034;27;65373;-41
2022/11/13 01:17:08;;;;;;;21.15;18.98;;;;;;;29.99;68.44;100932.84;5083815;27;70239;-41
2022/11/13 01:19:58;;;;;;;20.38;18.23;;;;;;;30.01;68.29;100934.31;5079655;27;65800;-41
2022/11/13 01:22:46;;;;;;;24.05;18.35;;;;;;;30.04;68.90;100936.59;5081709;27;69860;-43
2022/11/13 01:25:36;;;;;;;19.95;17.33;;;;;;;30.06;68.60;100939.91;5083644;27;66422;-46
2022/11/13 01:28:25;;;;;;;16.80;15.15;;;;;;;29.98;68.82;100926.63;5085786;27;70180;-41
2022/11/13 01:31:22;;;;;;;15.75;14.35;;;;;;;30.10;68.75;100936.78;5082037;27;65680;-42
2022/11/13 01:34:11;;;;;;;14.18;12.57;;;;;;;30.10;69.06;100921.38;5080693;27;69998;-41
2022/11/13 01:37:00;;;;;;;10.05;9.05;;;;;;;30.13;68.54;100929.06;5091257;27;67731;-42
2022/11/13 01:39:50;;;;;;;13.10;7.25;;;;;;;30.19;67.56;100928.19;5080366;27;69531;-42
2022/11/13 01:42:39;;;;;;;7.43;6.75;;;;;;;30.21;68.39;100919.88;5085351;27;66324;-42
2022/11/13 01:45:58;;;;;;;6.28;5.75;;;;;;;30.17;68.56;100934.88;5085060;27;70397;-42
2022/11/13 01:49:08;;;;;;;6.82;5.68;;;;;;;30.13;68.06;100912.00;5079526;27;65547;-41
2022/11/13 01:52:04;;;;;;;21.73;6.75;;;;;;;30.22;68.22;100919.69;5085188;27;70090;-41
2022/11/13 01:54:57;;;;;;;15.82;7.32;;;;;;;29.81;67.89;100842.44;5077529;27;65444;-43
2022/11/13 01:57:47;;;;;;;7.78;7.15;;;;;;;30.33;68.26;100922.75;5068965;27;69537;-44
2022/11/13 02:00:36;;;;;;;9.77;8.07;;;;;;;30.38;67.73;100922.94;5083164;27;66714;-43
2022/11/13 02:03:25;;;;;;;15.18;6.97;;;;;;;30.38;67.73;100918.38;5088735;27;70253;-43
2022/11/13 02:06:14;;;;;;;13.98;6.40;;;;;;;30.32;67.40;100916.53;5083737;27;65718;-41
2022/11/13 02:09:05;;;;;;;7.60;6.60;;;;;;;29.95;67.25;100847.78;5083693;27;69606;-40
2022/11/13 02:11:56;;;;;;;7.97;6.68;;;;;;;30.30;67.55;100912.38;5091637;27;66908;-41
2022/11/13 02:14:53;;;;;;;7.60;7.05;;;;;;;30.38;67.30;100914.84;5092602;27;70268;-41
2022/11/13 02:17:48;;;;;;;17.33;7.22;;;;;;;30.44;67.77;100924.78;5085140;27;66587;-41
2022/11/13 02:20:37;;;;;;;8.02;7.43;;;;;;;30.49;67.94;100933.09;5086076;27;69604;-40
2022/11/13 02:24:00;;;;;;;6.95;6.35;;;;;;;30.49;68.06;100923.09;5090121;27;66443;-41
2022/11/13 02:26:53;;;;;;;8.23;7.10;;;;;;;30.42;68.53;100910.63;5089392;27;69609;-42
2022/11/13 02:29:42;;;;;;;8.75;6.00;;;;;;;30.50;68.71;100913.09;5087705;27;65848;-40
2022/11/13 02:32:31;;;;;;;6.03;5.53;;;;;;;30.61;68.94;100925.94;5090431;27;70418;-42
2022/11/13 02:35:35;;;;;;;10.00;5.55;;;;;;;30.54;68.45;100908.91;5086443;27;66416;-43
2022/11/13 02:38:25;;;;;;;8.02;7.25;;;;;;;30.64;68.63;100922.78;5080764;27;71110;-44
2022/11/13 02:41:14;;;;;;;15.15;13.85;;;;;;;30.67;67.66;100925.09;5089323;27;66177;-44
2022/11/13 02:44:05;;;;;;;19.30;17.55;;;;;;;30.71;67.46;100926.28;5087069;27;70411;-44
2022/11/13 02:46:54;;;;;;;18.45;15.52;;;;;;;30.73;66.78;100918.78;5084227;27;66494;-43
2022/11/13 02:49:43;;;;;;;16.92;15.60;;;;;;;30.41;66.18;100876.50;5087007;27;69736;-44
2022/11/13 02:52:32;;;;;;;18.33;16.52;;;;;;;30.69;66.24;100900.47;5084906;27;66245;-40
2022/11/13 02:55:22;;;;;;;18.83;17.13;;;;;;;30.85;66.05;100920.81;5084330;27;69706;-40
2022/11/13 02:58:11;;;;;;;16.75;15.35;;;;;;;30.91;65.93;100930.78;5080953;27;65491;-42
2022/11/13 03:01:03;;;;;;;17.08;13.70;;;;;;;30.94;65.88;100924.91;5080296;27;70092;-44
2022/11/13 03:03:52;;;;;;;17.57;15.83;;;;;;;30.93;66.01;100920.56;5088392;27;65937;-43
2022/11/13 03:06:45;;;;;;;17.10;15.77;;;;;;;30.99;65.83;100922.38;5088728;27;70452;-43
2022/11/13 03:09:35;;;;;;;17.05;15.77;;;;;;;30.99;65.39;100908.03;5085013;27;66191;-42
2022/11/13 03:12:24;;;;;;;18.20;16.65;;;;;;;31.08;65.26;100920.22;5084244;27;70328;-43
2022/11/13 03:15:14;;;;;;;18.55;16.85;;;;;;;31.06;65.12;100911.47;5083986;27;65563;-42
2022/11/13 03:18:04;;;;;;;18.65;16.90;;;;;;;31.11;65.39;100920.59;5083639;27;70034;-44
2022/11/13 03:20:54;;;;;;;19.02;17.10;;;;;;;31.16;64.90;100912.66;5086658;27;66742;-44
2022/11/13 03:23:44;;;;;;;18.15;16.05;;;;;;;31.20;65.38;100912.19;5082909;27;70566;-42
2022/11/13 03:26:33;;;;;;;16.63;15.07;;;;;;;31.09;64.83;100887.50;5083017;27;67068;-42
2022/11/13 03:29:22;;;;;;;15.10;13.80;;;;;;;31.27;65.26;100904.84;5083828;27;70148;-43
2022/11/13 03:32:11;;;;;;;17.65;16.00;;;;;;;31.14;64.86;100884.13;5088446;27;66091;-43
2022/11/13 03:35:01;;;;;;;17.77;16.05;;;;;;;31.29;64.65;100902.75;5080889;27;69706;-41
2022/11/13 03:37:50;;;;;;;15.52;14.38;;;;;;;31.26;64.83;100887.78;5079032;27;66377;-43
2022/11/13 03:40:39;;;;;;;13.70;12.65;;;;;;;31.29;64.68;100879.19;5083319;27;70097;-42
2022/11/13 03:43:28;;;;;;;13.73;12.63;;;;;;;31.38;64.47;100882.47;5092861;27;65594;-44
2022/11/13 03:46:18;;;;;;;12.75;11.98;;;;;;;31.35;64.53;100878.28;5078425;27;70175;-42
2022/11/13 03:49:07;;;;;;;12.02;11.13;;;;;;;31.41;64.49;100882.03;5079121;27;65197;-44
2022/11/13 03:51:57;;;;;;;11.20;10.40;;;;;;;31.41;64.51;100854.91;5077249;27;70002;-43
2022/11/13 03:54:47;;;;;;;9.93;9.23;;;;;;;31.48;64.50;100865.69;5086589;27;65621;-42
2022/11/13 03:57:36;;;;;;;9.10;8.50;;;;;;;31.51;64.45;100860.66;5085212;27;70676;-43
2022/11/13 04:00:25;;;;;;;8.13;7.53;;;;;;;31.54;64.55;100865.63;5084018;27;65512;-44
2022/11/13 04:03:14;;;;;;;7.45;6.95;;;;;;;31.56;64.25;100847.22;5087265;27;69409;-41
2022/11/13 04:06:03;;;;;;;6.00;5.60;;;;;;;31.59;64.34;100857.66;5083850;27;65753;-42
2022/11/13 04:08:53;;;;;;;7.30;6.68;;;;;;;31.07;65.02;100773.09;5085521;27;70321;-41
2022/11/13 04:11:42;;;;;;;9.65;8.60;;;;;;;31.49;65.36;100851.91;5080012;27;65462;-42
2022/11/13 04:14:32;;;;;;;10.88;9.82;;;;;;;31.42;65.30;100836.75;5085755;27;70574;-41
2022/11/13 04:17:21;;;;;;;15.85;14.65;;;;;;;31.41;65.95;100833.22;5088407;27;65813;-40
2022/11/13 04:20:11;;;;;;;16.73;15.15;;;;;;;31.26;65.84;100811.03;5083030;27;69486;-42
2022/11/13 04:23:00;;;;;;;15.65;14.35;;;;;;;31.37;66.08;100813.03;5082940;27;66506;-41
2022/11/13 04:25:49;;;;;;;14.32;13.15;;;;;;;31.36;66.70;100820.34;5081099;27;70142;-43
2022/11/13 04:28:38;;;;;;;13.35;12.30;;;;;;;31.40;67.56;100820.75;5088790;27;66251;-44
2022/11/13 04:31:28;;;;;;;12.93;11.55;;;;;;;31.43;67.60;100808.63;5085092;27;70919;-43
2022/11/13 04:34:17;;;;;;;10.75;10.05;;;;;;;31.44;67.78;100805.66;5088769;27;66212;-41
2022/11/13 04:37:07;;;;;;;10.63;9.77;;;;;;;31.43;67.81;100798.59;5081560;27;70261;-52
2022/11/13 04:39:57;;;;;;;9.82;9.18;;;;;;;31.52;68.00;100807.25;5093349;27;67168;-41
2022/11/13 04:42:49;;;;;;;8.52;7.97;;;;;;;31.54;67.51;100794.31;5082197;27;70485;-41
2022/11/13 04:45:39;;;;;;;8.45;7.95;;;;;;;31.51;66.83;100784.75;5084657;27;66331;-43
2022/11/13 04:48:28;;;;;;;13.38;7.90;;;;;;;31.57;67.44;100793.84;5095174;27;70056;-42
2022/11/13 04:51:18;;;;;;;11.07;7.18;;;;;;;31.60;67.97;100782.56;5080388;27;65914;-41
2022/11/13 04:54:07;;;;;;;8.80;8.15;;;;;;;31.37;67.64;100734.44;5090873;27;69409;-41
2022/11/13 04:56:57;;;;;;;17.70;9.23;;;;;;;31.55;67.78;100747.97;5079704;27;66090;-43
2022/11/13 04:59:45;;;;;;;12.60;10.25;;;;;;;31.68;67.08;100767.81;5085429;27;70494;-41
2022/11/13 05:02:35;;;;;;;9.52;8.93;;;;;;;31.67;67.09;100766.19;5087496;27;66285;-42
2022/11/13 05:05:24;;;;;;;9.90;9.10;;;;;;;31.66;67.18;100761.81;5082927;27;69953;-42
2022/11/13 05:08:14;;;;;;;7.57;7.15;;;;;;;31.57;67.03;100754.00;5078962;27;66093;-42
2022/11/13 05:11:03;;;;;;;7.05;6.50;;;;;;;31.57;66.97;100756.72;5087487;27;69647;-42
2022/11/13 05:13:53;;;;;;;8.00;7.30;;;;;;;31.61;66.95;100771.47;5091264;27;66437;-47
2022/11/13 05:16:50;;;;;;;7.03;6.63;;;;;;;31.61;66.58;100763.31;5086227;27;70299;-44
2022/11/13 05:19:40;;;;;;;12.02;6.80;;;;;;;31.60;66.43;100756.25;5083943;27;66801;-43
2022/11/13 05:22:29;;;;;;;6.80;6.40;;;;;;;31.41;66.48;100719.38;5085789;27;70161;-43
2022/11/13 05:25:19;;;;;;;8.30;7.80;;;;;;;31.60;66.75;100756.25;5078760;27;66430;-43
2022/11/13 05:28:08;;;;;;;9.25;8.43;;;;;;;31.60;66.38;100745.41;5084917;27;69749;-44
2022/11/13 05:31:08;;;;;;;9.32;8.77;;;;;;;30.75;66.86;100617.16;5080694;27;66539;-43
2022/11/13 05:33:58;;;;;;;9.82;9.02;;;;;;;31.63;66.81;100743.31;5079716;27;69603;-43
2022/11/13 05:36:53;;;;;;;11.02;10.32;;;;;;;31.59;67.22;100732.91;5089375;27;66020;-42
2022/11/13 05:39:42;;;;;;;12.23;11.50;;;;;;;31.36;67.40;100695.66;5085644;27;69453;-43
2022/11/13 05:42:32;;;;;;;12.52;11.15;;;;;;;31.69;68.18;100734.25;5088793;27;66943;-41
2022/11/13 05:45:22;;;;;;;13.30;11.27;;;;;;;31.66;68.78;100710.31;5084471;27;70116;-42
2022/11/13 05:48:12;;;;;;;11.05;10.40;;;;;;;31.75;68.09;100715.16;5084577;27;65566;-43
2022/11/13 05:51:12;;;;;;;14.82;10.43;;;;;;;31.80;67.85;100709.06;5084154;27;69588;-43
2022/11/13 05:54:01;;;;;;;10.10;9.27;;;;;;;31.76;67.67;100683.44;5084880;27;66356;-43
2022/11/13 05:56:51;;;;;;;9.63;8.80;;;;;;;31.89;67.50;100694.09;5085309;27;69726;-43
2022/11/13 05:59:40;;;;;;;9.10;8.70;;;;;;;31.89;67.45;100687.84;5085533;27;65987;-42
2022/11/13 06:02:30;;;;;;;8.30;7.70;;;;;;;31.85;67.13;100665.81;5089572;27;70136;-42
2022/11/13 06:05:18;;;;;;;8.55;8.05;;;;;;;31.98;66.79;100671.06;5089566;27;66263;-42
2022/11/13 06:08:08;;;;;;;8.52;7.95;;;;;;;32.01;66.65;100675.16;5086681;27;69778;-42
2022/11/13 06:11:02;;;;;;;7.60;6.82;;;;;;;32.04;66.66;100670.13;5083379;27;65379;-42
2022/11/13 06:13:53;;;;;;;7.13;6.72;;;;;;;32.05;66.35;100660.91;5088107;27;69973;-42
2022/11/13 06:16:43;;;;;;;7.38;6.88;;;;;;;32.08;65.97;100658.78;5083062;27;66592;-42
2022/11/13 06:19:32;;;;;;;7.10;6.70;;;;;;;32.08;65.95;100658.78;5083941;27;69633;-42
2022/11/13 06:22:21;;;;;;;6.78;6.47;;;;;;;32.08;66.14;100647.94;5087211;27;66494;-39
2022/11/13 06:25:10;;;;;;;6.57;5.68;;;;;;;32.08;65.95;100637.09;5086332;27;70246;-46
2022/11/13 06:28:00;;;;;;;5.80;5.50;;;;;;;32.17;66.06;100635.66;5083320;27;65713;-42
2022/11/13 06:30:49;;;;;;;6.35;5.95;;;;;;;32.18;65.71;100631.88;5086489;27;71194;-44
2022/11/13 06:33:39;;;;;;;5.63;5.28;;;;;;;32.21;65.65;100623.31;5091466;27;65463;-41
2022/11/13 06:36:31;;;;;;;5.43;5.10;;;;;;;32.23;65.66;100623.88;5088336;27;69897;-41
2022/11/13 06:39:21;;;;;;;5.20;4.90;;;;;;;32.23;65.50;100613.00;5091742;27;65872;-42
2022/11/13 06:42:10;;;;;;;4.93;4.63;;;;;;;31.95;65.31;100562.97;5082282;27;69535;-39
2022/11/13 06:44:59;;;;;;;4.85;4.57;;;;;;;32.16;65.32;100590.63;5081967;27;65742;-42
2022/11/13 06:47:48;;;;;;;4.00;3.80;;;;;;;32.25;65.10;100597.31;5080434;27;70084;-41
2022/11/13 06:50:38;;;;;;;4.32;4.13;;;;;;;32.22;65.41;100584.22;5086934;27;66543;-41
2022/11/13 06:53:32;;;;;;;4.57;4.07;;;;;;;32.26;65.39;100579.97;5093392;27;70316;-41
2022/11/13 06:56:22;;;;;;;4.05;3.85;;;;;;;32.27;65.28;100581.63;5089562;27;65994;-41
2022/11/13 06:59:11;;;;;;;4.07;3.88;;;;;;;32.28;65.32;100581.38;5081795;27;70017;-42
2022/11/13 07:02:01;;;;;;;4.35;4.05;;;;;;;32.26;64.91;100580.81;5095643;27;65874;-40
2022/11/13 07:04:50;;;;;;;3.38;3.17;;;;;;;32.13;65.47;100543.06;5092878;27;69635;-42
2022/11/13 07:07:39;;;;;;;3.58;3.38;;;;;;;32.31;65.17;100561.09;5085997;27;66205;-41
2022/11/13 07:10:28;;;;;;;3.15;2.95;;;;;;;32.30;65.19;100570.31;5094314;27;70172;-41
2022/11/13 07:13:17;;;;;;;3.13;2.90;;;;;;;32.33;65.36;100560.88;5081968;27;66619;-40
2022/11/13 07:16:09;;;;;;;2.97;2.85;;;;;;;31.87;65.14;100484.63;5086005;27;70014;-41
2022/11/13 07:19:04;;;;;;;4.63;3.08;;;;;;;32.35;65.23;100573.13;5089160;27;66758;-42
2022/11/13 07:21:53;;;;;;;2.90;2.70;;;;;;;32.34;65.38;100559.78;5080451;27;69821;-42
2022/11/13 07:24:42;;;;;;;3.00;2.80;;;;;;;32.35;65.35;100562.28;5083148;27;66382;-42
2022/11/13 07:27:31;;;;;;;2.97;2.78;;;;;;;32.31;65.37;100561.09;5084658;27;70076;-40
2022/11/13 07:30:21;;;;;;;2.65;2.47;;;;;;;32.27;64.85;100546.34;5082480;27;67049;-42
2022/11/13 07:33:10;;;;;;;2.67;2.58;;;;;;;32.37;65.35;100559.31;5085776;27;69800;-42
2022/11/13 07:35:59;;;;;;;8.77;2.40;;;;;;;32.36;65.40;100569.34;5082274;27;65749;-43
2022/11/13 07:38:48;;;;;;;2.90;2.75;;;;;;;32.34;65.28;100565.22;5085054;27;69284;-41
2022/11/13 07:41:37;;;;;;;3.15;2.35;;;;;;;32.27;65.88;100559.94;5081206;27;66500;-42
2022/11/13 07:44:26;;;;;;;3.15;2.45;;;;;;;32.29;66.99;100568.66;5082301;27;70019;-43
2022/11/13 07:47:35;;;;;;;3.55;2.65;;;;;;;32.23;67.79;100584.00;5090928;27;66525;-44
2022/11/13 07:50:26;;;;;;;2.53;2.30;;;;;;;32.19;68.22;100587.41;5091269;27;70462;-42
2022/11/13 07:53:16;;;;;;;5.38;2.55;;;;;;;32.15;68.40;100583.50;5089351;27;65740;-44
2022/11/13 07:56:06;;;;;;;4.07;1.92;;;;;;;32.11;68.53;100560.63;5089579;27;70040;-42
2022/11/13 07:58:56;;;;;;;2.90;2.10;;;;;;;31.96;68.54;100528.56;5079109;27;65743;-45
2022/11/13 08:01:46;;;;;;;9.50;2.08;;;;;;;32.01;67.93;100553.06;5080650;27;69759;-44
2022/11/13 08:04:35;;;;;;;2.80;1.90;;;;;;;31.82;67.70;100552.34;5078995;27;66290;-43
2022/11/13 08:07:24;;;;;;;2.38;1.80;;;;;;;31.90;67.83;100591.84;5081239;27;70124;-43
2022/11/13 08:10:13;;;;;;;2.03;1.75;;;;;;;32.02;67.42;100593.53;5078598;27;66548;-43
2022/11/13 08:13:06;;;;;;;2.25;1.58;;;;;;;32.12;67.19;100602.97;5084432;27;69594;-42
2022/11/13 08:15:59;;;;;;;1.60;1.30;;;;;;;31.80;66.87;100530.06;5084216;27;67244;-42
2022/11/13 08:18:48;;;;;;;1.60;1.30;;;;;;;32.21;66.78;100588.03;5085934;27;70689;-43
2022/11/13 08:21:38;;;;;;;1.75;1.48;;;;;;;32.25;66.76;100594.63;5085706;27;65777;-41
2022/11/13 08:24:27;;;;;;;3.63;1.85;;;;;;;32.28;66.42;100583.28;5084232;27;69686;-41
2022/11/13 08:27:16;;;;;;;4.50;1.55;;;;;;;32.32;66.67;100584.47;5086900;27;66558;-42
2022/11/13 08:30:07;;;;;;;1.88;1.67;;;;;;;32.32;66.32;100576.31;5081799;27;70217;-41
2022/11/13 08:32:56;;;;;;;3.90;1.30;;;;;;;32.35;66.17;100573.13;5095745;27;66746;-41
2022/11/13 08:35:55;;;;;;;2.55;1.63;;;;;;;31.97;66.01;100495.75;5083466;27;70337;-43
2022/11/13 08:38:46;;;;;;;1.40;1.30;;;;;;;32.26;66.41;100536.53;5097078;27;66085;-43
2022/11/13 08:41:36;;;;;;;1.70;1.55;;;;;;;32.40;66.08;100547.97;5088771;27;70318;-42
2022/11/13 08:44:25;;;;;;;2.70;1.30;;;;;;;32.37;66.50;100554.69;5089579;27;65515;-43
2022/11/13 08:47:14;;;;;;;3.55;2.65;;;;;;;32.27;68.53;100555.31;5087890;27;69623;-42
2022/11/13 08:50:05;;;;;;;6.22;2.03;;;;;;;31.82;69.11;100488.06;5090489;27;66505;-43
2022/11/13 08:52:57;;;;;;;9.55;2.10;;;;;;;31.88;69.63;100524.28;5080980;27;71183;-48
2022/11/13 08:55:46;;;;;;;9.15;2.50;;;;;;;32.20;68.48;100586.34;5079594;27;65719;-42
2022/11/13 08:58:35;;;;;;;4.13;3.03;;;;;;;31.86;68.89;100537.25;5084537;27;69081;-42
2022/11/13 09:01:24;;;;;;;7.07;4.28;;;;;;;32.15;69.21;100575.38;5081744;27;66590;-44
2022/11/13 09:04:14;;;;;;;3.88;3.20;;;;;;;32.16;68.96;100579.75;5081866;27;70428;-42
2022/11/13 09:07:03;;;;;;;4.28;2.72;;;;;;;32.07;68.62;100559.44;5091992;27;65776;-42
2022/11/13 09:09:53;;;;;;;3.28;2.78;;;;;;;32.17;68.35;100575.97;5084119;27;70851;-42
2022/11/13 09:12:42;;;;;;;3.10;2.80;;;;;;;32.20;68.31;100583.63;5084948;27;65786;-42
2022/11/13 09:15:32;;;;;;;3.47;3.00;;;;;;;32.20;68.06;100581.75;5083285;27;69842;-42
2022/11/13 09:18:21;;;;;;;2.95;2.20;;;;;;;32.15;67.86;100572.66;5083986;27;65787;-42
2022/11/13 09:21:10;;;;;;;6.00;3.35;;;;;;;32.21;67.85;100577.16;5092140;27;70129;-42
2022/11/13 09:23:59;;;;;;;3.53;3.22;;;;;;;32.20;67.61;100584.44;5086280;27;65506;-43
2022/11/13 09:26:48;;;;;;;3.13;2.92;;;;;;;32.09;67.75;100568.19;5086646;27;70116;-45
2022/11/13 09:29:38;;;;;;;3.70;3.40;;;;;;;32.20;67.87;100586.34;5086437;27;66593;-43
2022/11/13 09:32:26;;;;;;;2.92;2.72;;;;;;;32.21;67.67;100601.59;5084108;27;69332;-43
2022/11/13 09:35:15;;;;;;;3.47;3.17;;;;;;;32.19;67.86;100595.56;5086123;27;66156;-42
2022/11/13 09:38:05;;;;;;;4.47;4.07;;;;;;;32.21;67.69;100596.16;5081880;27;69899;-43
2022/11/13 09:41:07;;;;;;;5.82;5.25;;;;;;;32.17;67.78;100611.25;5086935;27;65653;-48
2022/11/13 09:44:01;;;;;;;5.93;5.43;;;;;;;32.12;68.04;100611.13;5083779;27;69573;-44
2022/11/13 09:46:57;;;;;;;8.73;5.47;;;;;;;31.64;67.98;100520.72;5091287;27;65790;-44
2022/11/13 09:49:53;;;;;;;6.85;6.10;;;;;;;32.15;68.00;100606.06;5091823;27;70650;-44
2022/11/13 09:52:45;;;;;;;10.35;6.35;;;;;;;32.17;67.95;100608.53;5094136;27;66672;-43
2022/11/13 09:55:48;;;;;;;9.80;7.60;;;;;;;32.11;68.09;100610.31;5087138;27;70318;-44
2022/11/13 09:58:59;;;;;;;10.75;7.47;;;;;;;31.63;68.30;100540.78;5093285;27;66409;-43
2022/11/13 10:02:09;;;;;;;7.80;7.10;;;;;;;32.12;68.04;100630.94;5085110;27;70180;-42
2022/11/13 10:05:02;;;;;;;10.23;7.53;;;;;;;32.12;68.05;100632.84;5091372;27;65940;-44
2022/11/13 10:08:12;;;;;;;13.68;8.00;;;;;;;32.11;68.30;100642.03;5087699;27;69155;-44
2022/11/13 10:11:14;;;;;;;10.00;7.18;;;;;;;31.64;68.33;100577.66;5081877;27;65611;-43
2022/11/13 10:14:30;;;;;;;8.65;6.85;;;;;;;31.97;68.56;100655.81;5084001;27;69974;-43
2022/11/13 10:17:27;;;;;;;8.93;7.13;;;;;;;32.09;68.13;100650.41;5086247;27;65795;-43
2022/11/13 10:20:40;;;;;;;11.50;6.82;;;;;;;32.09;68.07;100649.59;5098846;27;70549;-42
2022/11/13 10:23:36;;;;;;;8.88;7.15;;;;;;;32.07;68.45;100657.13;5095557;27;66175;-44
2022/11/13 10:26:28;;;;;;;9.07;6.78;;;;;;;31.99;68.33;100640.16;5083215;27;70787;-43
2022/11/13 10:29:19;;;;;;;9.13;6.65;;;;;;;31.94;68.25;100642.72;5081802;27;65770;-43
2022/11/13 10:32:22;;;;;;;6.73;6.13;;;;;;;32.01;68.31;100654.31;5082762;28;70465;-42
2022/11/13 10:35:20;;;;;;;6.10;5.57;;;;;;;32.02;68.29;100655.94;5098968;27;65939;-44
2022/11/13 10:38:17;;;;;;;5.78;5.28;;;;;;;32.04;68.32;100659.25;5081491;27;70095;-42
2022/11/13 10:41:13;;;;;;;5.80;5.40;;;;;;;31.90;68.16;100636.09;5083439;27;66047;-44
2022/11/13 10:44:19;;;;;;;5.65;5.25;;;;;;;31.77;68.05;100631.69;5084501;27;70345;-42
2022/11/13 10:47:17;;;;;;;5.47;4.90;;;;;;;31.98;67.99;100667.50;5087399;27;65721;-42
2022/11/13 10:50:31;;;;;;;6.07;5.55;;;;;;;32.00;68.19;100684.38;5086642;27;69479;-44
2022/11/13 10:53:20;;;;;;;5.43;4.95;;;;;;;31.88;68.45;100661.78;5082374;27;66639;-43
2022/11/13 10:56:29;;;;;;;5.82;5.32;;;;;;;31.35;68.14;100601.84;5080766;27;70934;-43
2022/11/13 10:59:19;;;;;;;5.50;5.10;;;;;;;31.97;67.87;100696.50;5091776;27;66150;-43
2022/11/13 11:02:11;;;;;;;5.78;5.28;;;;;;;31.98;68.07;100700.03;5088291;27;69452;-43
2022/11/13 11:05:03;;;;;;;5.68;5.18;;;;;;;31.96;68.54;100716.56;5091736;27;66569;-44
2022/11/13 11:07:54;;;;;;;5.68;5.22;;;;;;;31.13;68.20;100576.31;5088871;27;68524;-43
2022/11/13 11:14:18;;;;;;;4.90;4.53;;;;;;;31.87;68.70;100717.91;5091562;27;70520;-43
2022/11/13 11:17:12;;;;;;;5.15;4.75;;;;;;;31.93;68.60;100738.75;5091541;27;65469;-42
2022/11/13 11:20:09;;;;;;;5.68;5.18;;;;;;;31.10;68.08;100587.59;5094056;27;70067;-43
2022/11/13 11:23:06;;;;;;;5.20;4.80;;;;;;;31.93;67.92;100730.59;5094378;27;65007;-43
2022/11/13 11:26:30;;;;;;;5.35;4.72;;;;;;;31.78;68.64;100736.41;5089376;27;70310;-43
2022/11/13 11:29:31;;;;;;;5.03;4.72;;;;;;;31.92;68.50;100734.34;5086694;27;65871;-42
2022/11/13 11:32:36;;;;;;;5.20;4.80;;;;;;;31.89;68.28;100726.66;5088604;27;70189;-43
2022/11/13 11:35:43;;;;;;;5.07;4.68;;;;;;;31.81;68.41;100748.66;5087019;27;66369;-44
2022/11/13 11:39:06;;;;;;;5.13;4.72;;;;;;;31.77;68.62;100737.47;5082646;27;70190;-43
2022/11/13 11:42:20;;;;;;;4.72;4.43;;;;;;;31.79;68.48;100748.09;5092074;27;66069;-44
2022/11/13 11:45:30;;;;;;;4.63;4.25;;;;;;;31.81;68.34;100760.34;5082399;27;69977;-44
2022/11/13 11:48:22;;;;;;;4.63;4.13;;;;;;;31.47;68.21;100702.19;5082854;27;64605;-43
2022/11/13 11:51:32;;;;;;;4.68;4.38;;;;;;;31.86;68.15;100765.09;5079601;27;69261;-42
2022/11/13 11:54:29;;;;;;;4.80;4.40;;;;;;;31.86;68.40;100778.66;5084062;27;66799;-42
2022/11/13 11:58:02;;;;;;;4.55;4.25;;;;;;;31.23;68.53;100689.53;5089177;27;69768;-42
2022/11/13 12:01:02;;;;;;;7.47;4.70;;;;;;;31.46;68.69;100724.13;5090407;27;66573;-43
2022/11/13 12:04:06;;;;;;;5.45;4.90;;;;;;;31.70;69.10;100782.81;5081271;27;70649;-41
2022/11/13 12:06:58;;;;;;;4.50;4.20;;;;;;;31.69;70.01;100783.06;5085971;27;65707;-44
2022/11/13 12:10:04;;;;;;;7.88;5.20;;;;;;;31.26;70.01;100727.03;5080123;27;71555;-44
2022/11/13 12:13:25;;;;;;;6.05;4.40;;;;;;;31.52;70.75;100802.66;5085420;27;65361;-44
2022/11/13 12:16:42;;;;;;;5.18;4.65;;;;;;;31.56;71.03;100793.00;5087671;27;69853;-42
2022/11/13 12:20:30;;;;;;;4.40;4.10;;;;;;;31.40;71.25;100807.19;5090091;27;65805;-42
2022/11/13 12:24:20;;;;;;;4.20;3.90;;;;;;;31.37;71.26;100810.31;5043670;27;69427;-43
2022/11/13 12:27:32;;;;;;;5.40;5.00;;;;;;;30.89;71.35;100727.84;5043167;27;65502;-42
2022/11/13 12:30:40;;;;;;;4.82;4.43;;;;;;;30.94;71.30;100757.81;5080807;27;69832;-42
2022/11/13 12:33:47;;;;;;;7.13;5.18;;;;;;;31.43;71.37;100836.56;5078500;27;65944;-42
2022/11/13 12:36:37;;;;;;;5.47;4.85;;;;;;;31.49;71.32;100841.06;5085092;27;69526;-42
2022/11/13 12:39:48;;;;;;;10.25;5.22;;;;;;;31.37;71.31;100835.56;5082075;27;66334;-42
2022/11/13 12:42:53;;;;;;;4.88;4.47;;;;;;;31.47;71.34;100864.03;5084005;27;69808;-42
2022/11/13 12:45:54;;;;;;;5.30;4.90;;;;;;;31.46;70.89;100846.94;5082759;27;65833;-43
2022/11/13 12:48:46;;;;;;;5.03;4.63;;;;;;;31.55;70.39;100871.88;5088726;27;70274;-44
2022/11/13 12:51:40;;;;;;;5.27;4.87;;;;;;;31.51;70.33;100857.94;5089967;27;65671;-43
2022/11/13 12:54:37;;;;;;;4.90;4.60;;;;;;;31.61;69.72;100865.53;5069626;27;70214;-43
2022/11/13 12:57:26;;;;;;;4.40;4.10;;;;;;;31.64;69.63;100869.69;5086812;27;65727;-43
2022/11/13 13:00:26;;;;;;;4.90;4.60;;;;;;;31.38;69.40;100828.25;5082045;27;70023;-43
2022/11/13 13:03:40;;;;;;;5.18;4.82;;;;;;;31.61;69.26;100877.22;5090537;27;66312;-44
2022/11/13 13:06:51;;;;;;;4.45;4.05;;;;;;;31.08;68.82;100801.84;5090160;27;70053;-43
2022/11/13 13:10:18;;;;;;;4.25;3.95;;;;;;;31.64;68.75;100885.94;5080209;27;65823;-44
2022/11/13 13:13:28;;;;;;;5.07;4.63;;;;;;;31.68;68.40;100898.00;5066276;27;70628;-43
2022/11/13 13:16:25;;;;;;;4.55;4.15;;;;;;;31.73;68.60;100898.16;5084840;27;65894;-42
2022/11/13 13:19:32;;;;;;;4.38;4.07;;;;;;;31.68;68.26;100900.72;5076780;27;70278;-42
2022/11/13 13:22:33;;;;;;;4.97;4.50;;;;;;;31.30;67.81;100842.06;5090163;27;65391;-43
2022/11/13 13:25:29;;;;;;;4.47;4.18;;;;;;;30.90;68.03;100775.56;5094748;27;70952;-44